sensor_id;sensor_type;location;lat;lon;timestamp;temperature;humidity
41965;DHT22;50120;53.250;8.702;2022-12-07T00:01:25;3.70;99.90
41965;DHT22;50120;53.250;8.702;2022-12-07T00:03:53;3.70;99.90
41965;DHT22;50120;53.250;8.702;2022-12-07T00:06:20;3.60;99.90
41965;DHT22;50120;53.250;8.702;2022-12-07T00:08:46;3.60;99.90
41965;DHT22;50120;53.250;8.702;2022-12-07T00:11:16;3.50;99.90
41965;DHT22;50120;53.250;8.702;2022-12-07T00:13:43;3.40;99.90
41965;DHT22;50120;53.250;8.702;2022-12-07T00:16:15;3.40;99.90
41965;DHT22;50120;53.250;8.702;2022-12-07T00:18:41;3.40;99.90
41965;DHT22;50120;53.250;8.702;2022-12-07T00:21:11;3.40;99.90
41965;DHT22;50120;53.250;8.702;2022-12-07T00:23:37;3.40;99.90
41965;DHT22;50120;53.250;8.702;2022-12-07T00:26:12;3.40;99.90
41965;DHT22;50120;53.250;8.702;2022-12-07T00:28:38;3.40;99.90
41965;DHT22;50120;53.250;8.702;2022-12-07T00:31:09;3.50;99.90
41965;DHT22;50120;53.250;8.702;2022-12-07T00:33:36;3.50;99.90
41965;DHT22;50120;53.250;8.702;2022-12-07T00:36:15;3.50;99.90
41965;DHT22;50120;53.250;8.702;2022-12-07T00:38:41;3.40;99.90
41965;DHT22;50120;53.250;8.702;2022-12-07T00:41:18;3.40;99.90
41965;DHT22;50120;53.250;8.702;2022-12-07T00:43:46;3.40;99.90
41965;DHT22;50120;53.250;8.702;2022-12-07T00:46:12;3.30;99.90
41965;DHT22;50120;53.250;8.702;2022-12-07T00:48:39;3.30;99.90
41965;DHT22;50120;53.250;8.702;2022-12-07T00:51:05;3.30;99.90
41965;DHT22;50120;53.250;8.702;2022-12-07T00:53:33;3.20;99.90
41965;DHT22;50120;53.250;8.702;2022-12-07T00:56:08;3.20;99.90
41965;DHT22;50120;53.250;8.702;2022-12-07T00:58:34;3.20;99.90
41965;DHT22;50120;53.250;8.702;2022-12-07T01:01:04;3.20;99.90
41965;DHT22;50120;53.250;8.702;2022-12-07T01:03:31;3.20;99.90
41965;DHT22;50120;53.250;8.702;2022-12-07T01:05:57;3.20;99.90
41965;DHT22;50120;53.250;8.702;2022-12-07T01:08:24;3.20;99.90
41965;DHT22;50120;53.250;8.702;2022-12-07T01:11:04;3.30;99.90
41965;DHT22;50120;53.250;8.702;2022-12-07T01:13:32;3.20;99.90
41965;DHT22;50120;53.250;8.702;2022-12-07T01:15:59;3.20;99.90
41965;DHT22;50120;53.250;8.702;2022-12-07T01:18:27;3.20;99.90
41965;DHT22;50120;53.250;8.702;2022-12-07T01:21:02;3.20;99.90
41965;DHT22;50120;53.250;8.702;2022-12-07T01:23:29;3.10;99.90
41965;DHT22;50120;53.250;8.702;2022-12-07T01:25:57;3.10;99.90
41965;DHT22;50120;53.250;8.702;2022-12-07T01:28:22;3.10;99.90
41965;DHT22;50120;53.250;8.702;2022-12-07T01:31:03;3.10;99.90
41965;DHT22;50120;53.250;8.702;2022-12-07T01:33:33;3.10;99.90
41965;DHT22;50120;53.250;8.702;2022-12-07T01:36:07;3.10;99.90
41965;DHT22;50120;53.250;8.702;2022-12-07T01:38:33;3.10;99.90
41965;DHT22;50120;53.250;8.702;2022-12-07T01:41:00;3.10;99.90
41965;DHT22;50120;53.250;8.702;2022-12-07T01:43:29;3.10;99.90
41965;DHT22;50120;53.250;8.702;2022-12-07T01:45:55;2.90;99.90
41965;DHT22;50120;53.250;8.702;2022-12-07T01:48:39;3.00;99.90
41965;DHT22;50120;53.250;8.702;2022-12-07T01:51:09;3.10;99.90
41965;DHT22;50120;53.250;8.702;2022-12-07T01:53:39;3.00;99.90
41965;DHT22;50120;53.250;8.702;2022-12-07T01:56:08;3.00;99.90
41965;DHT22;50120;53.250;8.702;2022-12-07T01:58:36;3.00;99.90
41965;DHT22;50120;53.250;8.702;2022-12-07T02:01:02;2.90;99.90
41965;DHT22;50120;53.250;8.702;2022-12-07T02:03:36;2.90;99.90
41965;DHT22;50120;53.250;8.702;2022-12-07T02:06:04;2.80;99.90
41965;DHT22;50120;53.250;8.702;2022-12-07T02:08:31;2.80;99.90
41965;DHT22;50120;53.250;8.702;2022-12-07T02:10:57;2.70;99.90
41965;DHT22;50120;53.250;8.702;2022-12-07T02:13:25;2.70;99.90
41965;DHT22;50120;53.250;8.702;2022-12-07T02:21:24;2.60;99.90
41965;DHT22;50120;53.250;8.702;2022-12-07T02:24:03;2.60;99.90
41965;DHT22;50120;53.250;8.702;2022-12-07T02:29:24;2.60;99.90
41965;DHT22;50120;53.250;8.702;2022-12-07T02:32:18;2.60;99.90
41965;DHT22;50120;53.250;8.702;2022-12-07T02:34:55;2.60;99.90
41965;DHT22;50120;53.250;8.702;2022-12-07T02:40:31;2.50;99.90
41965;DHT22;50120;53.250;8.702;2022-12-07T02:43:09;2.50;99.90
41965;DHT22;50120;53.250;8.702;2022-12-07T02:45:39;2.50;99.90
41965;DHT22;50120;53.250;8.702;2022-12-07T02:48:07;2.60;99.90
41965;DHT22;50120;53.250;8.702;2022-12-07T02:50:34;2.60;99.90
41965;DHT22;50120;53.250;8.702;2022-12-07T02:53:00;2.60;99.90
41965;DHT22;50120;53.250;8.702;2022-12-07T02:55:37;2.70;99.90
41965;DHT22;50120;53.250;8.702;2022-12-07T02:58:37;2.70;99.90
41965;DHT22;50120;53.250;8.702;2022-12-07T03:03:35;2.80;99.90
41965;DHT22;50120;53.250;8.702;2022-12-07T03:06:31;2.80;99.90
41965;DHT22;50120;53.250;8.702;2022-12-07T03:09:36;2.80;99.90
41965;DHT22;50120;53.250;8.702;2022-12-07T03:12:57;2.90;99.90
41965;DHT22;50120;53.250;8.702;2022-12-07T03:15:39;2.90;99.90
41965;DHT22;50120;53.250;8.702;2022-12-07T03:18:07;2.90;99.90
41965;DHT22;50120;53.250;8.702;2022-12-07T03:20:35;2.90;99.90
41965;DHT22;50120;53.250;8.702;2022-12-07T03:23:05;2.90;99.90
41965;DHT22;50120;53.250;8.702;2022-12-07T03:25:38;3.00;99.90
41965;DHT22;50120;53.250;8.702;2022-12-07T03:28:06;3.00;99.90
41965;DHT22;50120;53.250;8.702;2022-12-07T03:31:01;3.00;99.90
41965;DHT22;50120;53.250;8.702;2022-12-07T03:33:39;3.00;99.90
41965;DHT22;50120;53.250;8.702;2022-12-07T03:36:15;3.00;99.90
41965;DHT22;50120;53.250;8.702;2022-12-07T03:38:56;3.00;99.90
41965;DHT22;50120;53.250;8.702;2022-12-07T03:41:29;3.00;99.90
41965;DHT22;50120;53.250;8.702;2022-12-07T03:43:57;3.00;99.90
41965;DHT22;50120;53.250;8.702;2022-12-07T03:52:24;2.90;99.90
41965;DHT22;50120;53.250;8.702;2022-12-07T03:57:40;2.90;99.90
41965;DHT22;50120;53.250;8.702;2022-12-07T04:00:07;2.90;99.90
41965;DHT22;50120;53.250;8.702;2022-12-07T04:02:33;2.90;99.90
41965;DHT22;50120;53.250;8.702;2022-12-07T04:04:59;2.90;99.90
41965;DHT22;50120;53.250;8.702;2022-12-07T04:07:25;2.90;99.90
41965;DHT22;50120;53.250;8.702;2022-12-07T04:09:51;2.90;99.90
41965;DHT22;50120;53.250;8.702;2022-12-07T04:12:17;2.90;99.90
41965;DHT22;50120;53.250;8.702;2022-12-07T04:14:42;2.90;99.90
41965;DHT22;50120;53.250;8.702;2022-12-07T04:17:08;2.90;99.90
41965;DHT22;50120;53.250;8.702;2022-12-07T04:19:34;3.00;99.90
41965;DHT22;50120;53.250;8.702;2022-12-07T04:22:03;2.90;99.90
41965;DHT22;50120;53.250;8.702;2022-12-07T04:24:29;2.80;99.90
41965;DHT22;50120;53.250;8.702;2022-12-07T04:26:55;2.80;99.90
41965;DHT22;50120;53.250;8.702;2022-12-07T04:29:21;2.90;99.90
41965;DHT22;50120;53.250;8.702;2022-12-07T04:31:47;2.90;99.90
41965;DHT22;50120;53.250;8.702;2022-12-07T04:34:14;2.90;99.90
41965;DHT22;50120;53.250;8.702;2022-12-07T04:36:41;2.90;99.90
41965;DHT22;50120;53.250;8.702;2022-12-07T04:39:08;2.90;99.90
41965;DHT22;50120;53.250;8.702;2022-12-07T04:41:39;3.00;99.90
41965;DHT22;50120;53.250;8.702;2022-12-07T04:44:04;3.00;99.90
41965;DHT22;50120;53.250;8.702;2022-12-07T04:46:33;3.00;99.90
41965;DHT22;50120;53.250;8.702;2022-12-07T04:48:58;3.00;99.90
41965;DHT22;50120;53.250;8.702;2022-12-07T04:51:29;3.00;99.90
41965;DHT22;50120;53.250;8.702;2022-12-07T04:53:55;3.00;99.90
41965;DHT22;50120;53.250;8.702;2022-12-07T04:56:22;3.00;99.90
41965;DHT22;50120;53.250;8.702;2022-12-07T04:58:48;3.00;99.90
41965;DHT22;50120;53.250;8.702;2022-12-07T05:01:16;3.00;99.90
41965;DHT22;50120;53.250;8.702;2022-12-07T05:03:42;3.00;99.90
41965;DHT22;50120;53.250;8.702;2022-12-07T05:06:08;3.00;99.90
41965;DHT22;50120;53.250;8.702;2022-12-07T05:08:35;2.90;99.90
41965;DHT22;50120;53.250;8.702;2022-12-07T05:11:02;2.90;99.90
41965;DHT22;50120;53.250;8.702;2022-12-07T05:13:27;2.90;99.90
41965;DHT22;50120;53.250;8.702;2022-12-07T05:15:53;2.80;99.90
41965;DHT22;50120;53.250;8.702;2022-12-07T05:18:19;2.80;99.90
41965;DHT22;50120;53.250;8.702;2022-12-07T05:20:45;2.80;99.90
41965;DHT22;50120;53.250;8.702;2022-12-07T05:23:11;2.80;99.90
41965;DHT22;50120;53.250;8.702;2022-12-07T05:25:37;2.80;99.90
41965;DHT22;50120;53.250;8.702;2022-12-07T05:28:04;2.70;99.90
41965;DHT22;50120;53.250;8.702;2022-12-07T05:30:30;2.70;99.90
41965;DHT22;50120;53.250;8.702;2022-12-07T05:32:56;2.70;99.90
41965;DHT22;50120;53.250;8.702;2022-12-07T05:35:22;2.70;99.90
41965;DHT22;50120;53.250;8.702;2022-12-07T05:37:48;2.70;99.90
41965;DHT22;50120;53.250;8.702;2022-12-07T05:40:14;2.70;99.90
41965;DHT22;50120;53.250;8.702;2022-12-07T05:42:40;2.70;99.90
41965;DHT22;50120;53.250;8.702;2022-12-07T05:45:07;2.70;99.90
41965;DHT22;50120;53.250;8.702;2022-12-07T05:47:33;2.70;99.90
41965;DHT22;50120;53.250;8.702;2022-12-07T05:49:59;2.70;99.90
41965;DHT22;50120;53.250;8.702;2022-12-07T05:52:26;2.70;99.90
41965;DHT22;50120;53.250;8.702;2022-12-07T05:54:52;2.70;99.90
41965;DHT22;50120;53.250;8.702;2022-12-07T05:57:18;2.70;99.90
41965;DHT22;50120;53.250;8.702;2022-12-07T05:59:44;2.80;99.90
41965;DHT22;50120;53.250;8.702;2022-12-07T06:02:12;2.70;99.90
41965;DHT22;50120;53.250;8.702;2022-12-07T06:04:43;2.70;99.90
41965;DHT22;50120;53.250;8.702;2022-12-07T06:07:10;2.70;99.90
41965;DHT22;50120;53.250;8.702;2022-12-07T06:09:36;2.70;99.90
41965;DHT22;50120;53.250;8.702;2022-12-07T06:12:03;2.70;99.90
41965;DHT22;50120;53.250;8.702;2022-12-07T06:14:47;2.70;99.90
41965;DHT22;50120;53.250;8.702;2022-12-07T06:17:13;2.70;99.90
41965;DHT22;50120;53.250;8.702;2022-12-07T06:19:39;2.70;99.90
41965;DHT22;50120;53.250;8.702;2022-12-07T06:22:06;2.70;99.90
41965;DHT22;50120;53.250;8.702;2022-12-07T06:24:33;2.60;99.90
41965;DHT22;50120;53.250;8.702;2022-12-07T06:26:59;2.70;99.90
41965;DHT22;50120;53.250;8.702;2022-12-07T06:29:25;2.70;99.90
41965;DHT22;50120;53.250;8.702;2022-12-07T06:31:51;2.60;99.90
41965;DHT22;50120;53.250;8.702;2022-12-07T06:34:20;2.60;99.90
41965;DHT22;50120;53.250;8.702;2022-12-07T06:36:47;2.60;99.90
41965;DHT22;50120;53.250;8.702;2022-12-07T06:39:19;2.60;99.90
41965;DHT22;50120;53.250;8.702;2022-12-07T06:41:45;2.60;99.90
41965;DHT22;50120;53.250;8.702;2022-12-07T06:44:10;2.60;99.90
41965;DHT22;50120;53.250;8.702;2022-12-07T06:46:36;2.60;99.90
41965;DHT22;50120;53.250;8.702;2022-12-07T06:49:03;2.60;99.90
41965;DHT22;50120;53.250;8.702;2022-12-07T06:51:29;2.60;99.90
41965;DHT22;50120;53.250;8.702;2022-12-07T06:53:55;2.60;99.90
41965;DHT22;50120;53.250;8.702;2022-12-07T06:56:21;2.60;99.90
41965;DHT22;50120;53.250;8.702;2022-12-07T06:58:48;2.60;99.90
41965;DHT22;50120;53.250;8.702;2022-12-07T07:01:15;2.60;99.90
41965;DHT22;50120;53.250;8.702;2022-12-07T07:03:42;2.60;99.90
41965;DHT22;50120;53.250;8.702;2022-12-07T07:06:08;2.60;99.90
41965;DHT22;50120;53.250;8.702;2022-12-07T07:08:35;2.60;99.90
41965;DHT22;50120;53.250;8.702;2022-12-07T07:11:01;2.60;99.90
41965;DHT22;50120;53.250;8.702;2022-12-07T07:13:27;2.60;99.90
41965;DHT22;50120;53.250;8.702;2022-12-07T07:15:53;2.60;99.90
41965;DHT22;50120;53.250;8.702;2022-12-07T07:18:20;2.50;99.90
41965;DHT22;50120;53.250;8.702;2022-12-07T07:20:46;2.50;99.90
41965;DHT22;50120;53.250;8.702;2022-12-07T07:23:12;2.50;99.90
41965;DHT22;50120;53.250;8.702;2022-12-07T07:25:38;2.50;99.90
41965;DHT22;50120;53.250;8.702;2022-12-07T07:28:04;2.40;99.90
41965;DHT22;50120;53.250;8.702;2022-12-07T07:30:30;2.40;99.90
41965;DHT22;50120;53.250;8.702;2022-12-07T07:32:57;2.40;99.90
41965;DHT22;50120;53.250;8.702;2022-12-07T07:35:24;2.40;99.90
41965;DHT22;50120;53.250;8.702;2022-12-07T07:37:50;2.40;99.90
41965;DHT22;50120;53.250;8.702;2022-12-07T07:40:15;2.40;99.90
41965;DHT22;50120;53.250;8.702;2022-12-07T07:42:41;2.30;99.90
41965;DHT22;50120;53.250;8.702;2022-12-07T07:45:07;2.30;99.90
41965;DHT22;50120;53.250;8.702;2022-12-07T07:47:33;2.30;99.90
41965;DHT22;50120;53.250;8.702;2022-12-07T07:49:59;2.30;99.90
41965;DHT22;50120;53.250;8.702;2022-12-07T07:52:25;2.20;99.90
41965;DHT22;50120;53.250;8.702;2022-12-07T07:54:50;2.20;99.90
41965;DHT22;50120;53.250;8.702;2022-12-07T07:57:16;2.20;99.90
41965;DHT22;50120;53.250;8.702;2022-12-07T07:59:42;2.20;99.90
41965;DHT22;50120;53.250;8.702;2022-12-07T08:02:16;2.20;99.90
41965;DHT22;50120;53.250;8.702;2022-12-07T08:04:42;2.20;99.90
41965;DHT22;50120;53.250;8.702;2022-12-07T08:07:08;2.20;99.90
41965;DHT22;50120;53.250;8.702;2022-12-07T08:09:33;2.20;99.90
41965;DHT22;50120;53.250;8.702;2022-12-07T08:11:59;2.20;99.90
41965;DHT22;50120;53.250;8.702;2022-12-07T08:14:26;2.20;99.90
41965;DHT22;50120;53.250;8.702;2022-12-07T08:16:53;2.20;99.90
41965;DHT22;50120;53.250;8.702;2022-12-07T08:19:18;2.20;99.90
41965;DHT22;50120;53.250;8.702;2022-12-07T08:21:44;2.30;99.90
41965;DHT22;50120;53.250;8.702;2022-12-07T08:24:10;2.30;99.90
41965;DHT22;50120;53.250;8.702;2022-12-07T08:26:35;2.30;99.90
41965;DHT22;50120;53.250;8.702;2022-12-07T08:29:01;2.30;99.90
41965;DHT22;50120;53.250;8.702;2022-12-07T08:31:27;2.40;99.90
41965;DHT22;50120;53.250;8.702;2022-12-07T08:33:54;2.40;99.90
41965;DHT22;50120;53.250;8.702;2022-12-07T08:36:20;2.40;99.90
41965;DHT22;50120;53.250;8.702;2022-12-07T08:38:47;2.40;99.90
41965;DHT22;50120;53.250;8.702;2022-12-07T08:41:12;2.40;99.90
41965;DHT22;50120;53.250;8.702;2022-12-07T08:43:38;2.50;99.90
41965;DHT22;50120;53.250;8.702;2022-12-07T08:46:16;2.50;99.90
41965;DHT22;50120;53.250;8.702;2022-12-07T08:48:57;2.50;99.90
41965;DHT22;50120;53.250;8.702;2022-12-07T08:51:24;2.60;99.90
41965;DHT22;50120;53.250;8.702;2022-12-07T08:53:51;2.60;99.90
41965;DHT22;50120;53.250;8.702;2022-12-07T08:56:18;2.70;99.90
41965;DHT22;50120;53.250;8.702;2022-12-07T08:58:44;2.70;99.90
41965;DHT22;50120;53.250;8.702;2022-12-07T09:01:10;2.80;99.90
41965;DHT22;50120;53.250;8.702;2022-12-07T09:03:36;2.80;99.90
41965;DHT22;50120;53.250;8.702;2022-12-07T09:06:02;2.90;99.90
41965;DHT22;50120;53.250;8.702;2022-12-07T09:08:37;3.00;99.90
41965;DHT22;50120;53.250;8.702;2022-12-07T09:11:04;3.00;99.90
41965;DHT22;50120;53.250;8.702;2022-12-07T09:13:30;3.00;99.90
41965;DHT22;50120;53.250;8.702;2022-12-07T09:15:56;3.10;99.90
41965;DHT22;50120;53.250;8.702;2022-12-07T09:18:22;3.20;99.90
41965;DHT22;50120;53.250;8.702;2022-12-07T09:20:49;3.30;99.90
41965;DHT22;50120;53.250;8.702;2022-12-07T09:23:15;3.30;99.90
41965;DHT22;50120;53.250;8.702;2022-12-07T09:25:41;3.30;99.90
41965;DHT22;50120;53.250;8.702;2022-12-07T09:28:06;3.40;99.90
41965;DHT22;50120;53.250;8.702;2022-12-07T09:30:32;3.50;99.90
41965;DHT22;50120;53.250;8.702;2022-12-07T09:32:58;3.50;99.90
41965;DHT22;50120;53.250;8.702;2022-12-07T09:35:25;3.50;99.90
41965;DHT22;50120;53.250;8.702;2022-12-07T09:37:50;3.60;99.90
41965;DHT22;50120;53.250;8.702;2022-12-07T09:40:18;3.80;99.90
41965;DHT22;50120;53.250;8.702;2022-12-07T09:42:48;3.80;99.90
41965;DHT22;50120;53.250;8.702;2022-12-07T09:45:30;3.80;99.90
41965;DHT22;50120;53.250;8.702;2022-12-07T09:47:58;3.80;99.90
41965;DHT22;50120;53.250;8.702;2022-12-07T09:50:27;3.80;99.90
41965;DHT22;50120;53.250;8.702;2022-12-07T09:53:06;3.80;99.90
41965;DHT22;50120;53.250;8.702;2022-12-07T09:55:41;4.00;99.90
41965;DHT22;50120;53.250;8.702;2022-12-07T09:58:28;4.10;99.90
41965;DHT22;50120;53.250;8.702;2022-12-07T10:01:11;4.00;99.90
41965;DHT22;50120;53.250;8.702;2022-12-07T10:03:40;4.00;99.90
41965;DHT22;50120;53.250;8.702;2022-12-07T10:06:11;3.90;99.90
41965;DHT22;50120;53.250;8.702;2022-12-07T10:08:38;3.80;99.90
41965;DHT22;50120;53.250;8.702;2022-12-07T10:11:03;3.80;99.90
41965;DHT22;50120;53.250;8.702;2022-12-07T10:13:43;3.70;99.90
41965;DHT22;50120;53.250;8.702;2022-12-07T10:16:38;3.80;99.90
41965;DHT22;50120;53.250;8.702;2022-12-07T10:19:28;3.80;99.90
41965;DHT22;50120;53.250;8.702;2022-12-07T10:22:04;3.80;99.90
41965;DHT22;50120;53.250;8.702;2022-12-07T10:24:30;3.70;99.90
41965;DHT22;50120;53.250;8.702;2022-12-07T10:26:56;3.80;99.90
41965;DHT22;50120;53.250;8.702;2022-12-07T10:29:33;3.80;99.90
41965;DHT22;50120;53.250;8.702;2022-12-07T10:32:02;3.90;99.90
41965;DHT22;50120;53.250;8.702;2022-12-07T10:34:37;4.00;99.90
41965;DHT22;50120;53.250;8.702;2022-12-07T10:39:42;4.20;99.90
41965;DHT22;50120;53.250;8.702;2022-12-07T10:42:17;4.40;99.90
41965;DHT22;50120;53.250;8.702;2022-12-07T10:44:44;4.40;99.90
41965;DHT22;50120;53.250;8.702;2022-12-07T10:48:08;4.30;99.90
41965;DHT22;50120;53.250;8.702;2022-12-07T11:12:09;3.80;99.90
41965;DHT22;50120;53.250;8.702;2022-12-07T11:17:45;3.80;99.90
41965;DHT22;50120;53.250;8.702;2022-12-07T11:20:47;3.90;99.90
41965;DHT22;50120;53.250;8.702;2022-12-07T11:37:34;3.80;99.90
41965;DHT22;50120;53.250;8.702;2022-12-07T11:40:26;3.60;99.90
41965;DHT22;50120;53.250;8.702;2022-12-07T11:43:06;3.50;99.90
41965;DHT22;50120;53.250;8.702;2022-12-07T11:45:42;3.40;99.90
41965;DHT22;50120;53.250;8.702;2022-12-07T11:50:51;3.40;99.90
41965;DHT22;50120;53.250;8.702;2022-12-07T11:53:23;3.50;99.90
41965;DHT22;50120;53.250;8.702;2022-12-07T11:55:57;3.40;99.90
41965;DHT22;50120;53.250;8.702;2022-12-07T12:03:47;3.40;99.90
41965;DHT22;50120;53.250;8.702;2022-12-07T12:06:14;3.50;99.90
41965;DHT22;50120;53.250;8.702;2022-12-07T12:08:46;3.40;99.90
41965;DHT22;50120;53.250;8.702;2022-12-07T12:22:57;3.20;99.90
41965;DHT22;50120;53.250;8.702;2022-12-07T12:25:27;3.10;99.90
41965;DHT22;50120;53.250;8.702;2022-12-07T12:27:55;3.00;99.90
41965;DHT22;50120;53.250;8.702;2022-12-07T12:30:34;2.80;99.90
41965;DHT22;50120;53.250;8.702;2022-12-07T12:33:14;2.80;99.90
41965;DHT22;50120;53.250;8.702;2022-12-07T12:35:41;2.70;99.90
41965;DHT22;50120;53.250;8.702;2022-12-07T12:38:30;2.80;99.90
41965;DHT22;50120;53.250;8.702;2022-12-07T12:40:57;2.70;99.90
41965;DHT22;50120;53.250;8.702;2022-12-07T12:43:44;2.70;99.90
41965;DHT22;50120;53.250;8.702;2022-12-07T12:51:43;2.80;99.90
41965;DHT22;50120;53.250;8.702;2022-12-07T12:54:19;2.80;99.90
41965;DHT22;50120;53.250;8.702;2022-12-07T12:59:33;2.90;99.90
41965;DHT22;50120;53.250;8.702;2022-12-07T13:12:56;3.10;99.90
41965;DHT22;50120;53.250;8.702;2022-12-07T13:15:34;3.20;99.90
41965;DHT22;50120;53.250;8.702;2022-12-07T13:18:03;3.30;99.90
41965;DHT22;50120;53.250;8.702;2022-12-07T13:20:49;3.30;99.90
41965;DHT22;50120;53.250;8.702;2022-12-07T13:26:57;3.40;99.90
41965;DHT22;50120;53.250;8.702;2022-12-07T13:29:17;3.50;99.90
41965;DHT22;50120;53.250;8.702;2022-12-07T13:31:54;3.50;99.90
41965;DHT22;50120;53.250;8.702;2022-12-07T13:34:36;3.60;99.90
41965;DHT22;50120;53.250;8.702;2022-12-07T13:39:53;3.60;99.90
41965;DHT22;50120;53.250;8.702;2022-12-07T13:42:29;3.70;99.90
41965;DHT22;50120;53.250;8.702;2022-12-07T13:44:57;3.70;99.90
41965;DHT22;50120;53.250;8.702;2022-12-07T13:47:35;3.60;99.90
41965;DHT22;50120;53.250;8.702;2022-12-07T13:50:24;3.60;99.90
41965;DHT22;50120;53.250;8.702;2022-12-07T13:52:50;3.40;99.90
41965;DHT22;50120;53.250;8.702;2022-12-07T13:55:20;3.30;99.90
41965;DHT22;50120;53.250;8.702;2022-12-07T13:57:49;3.20;99.90
41965;DHT22;50120;53.250;8.702;2022-12-07T14:00:26;3.10;99.90
41965;DHT22;50120;53.250;8.702;2022-12-07T14:05:43;3.10;99.90
41965;DHT22;50120;53.250;8.702;2022-12-07T14:13:20;3.00;99.90
41965;DHT22;50120;53.250;8.702;2022-12-07T14:15:50;2.90;99.90
41965;DHT22;50120;53.250;8.702;2022-12-07T14:18:39;2.90;99.90
41965;DHT22;50120;53.250;8.702;2022-12-07T14:21:29;2.90;99.90
41965;DHT22;50120;53.250;8.702;2022-12-07T14:26:37;2.90;99.90
41965;DHT22;50120;53.250;8.702;2022-12-07T14:31:52;2.80;99.90
41965;DHT22;50120;53.250;8.702;2022-12-07T14:34:22;2.80;99.90
41965;DHT22;50120;53.250;8.702;2022-12-07T14:36:49;2.80;99.90
41965;DHT22;50120;53.250;8.702;2022-12-07T14:39:14;2.80;99.90
41965;DHT22;50120;53.250;8.702;2022-12-07T14:41:40;2.80;99.90
41965;DHT22;50120;53.250;8.702;2022-12-07T14:44:20;2.70;99.90
41965;DHT22;50120;53.250;8.702;2022-12-07T14:46:48;2.70;99.90
41965;DHT22;50120;53.250;8.702;2022-12-07T14:49:13;2.60;99.90
41965;DHT22;50120;53.250;8.702;2022-12-07T14:51:40;2.50;99.90
41965;DHT22;50120;53.250;8.702;2022-12-07T14:54:19;2.40;99.90
41965;DHT22;50120;53.250;8.702;2022-12-07T14:56:46;2.40;99.90
41965;DHT22;50120;53.250;8.702;2022-12-07T14:59:16;2.40;99.90
41965;DHT22;50120;53.250;8.702;2022-12-07T15:01:42;2.30;99.90
41965;DHT22;50120;53.250;8.702;2022-12-07T15:04:07;2.30;99.90
41965;DHT22;50120;53.250;8.702;2022-12-07T15:06:33;2.30;99.90
41965;DHT22;50120;53.250;8.702;2022-12-07T15:08:59;2.20;99.90
41965;DHT22;50120;53.250;8.702;2022-12-07T15:11:25;2.20;99.90
41965;DHT22;50120;53.250;8.702;2022-12-07T15:13:51;2.10;99.90
41965;DHT22;50120;53.250;8.702;2022-12-07T15:16:41;2.10;99.90
41965;DHT22;50120;53.250;8.702;2022-12-07T15:19:16;2.00;99.90
41965;DHT22;50120;53.250;8.702;2022-12-07T15:21:43;2.00;99.90
41965;DHT22;50120;53.250;8.702;2022-12-07T15:24:11;2.00;99.90
41965;DHT22;50120;53.250;8.702;2022-12-07T15:26:38;1.90;99.90
41965;DHT22;50120;53.250;8.702;2022-12-07T15:29:04;1.90;99.90
41965;DHT22;50120;53.250;8.702;2022-12-07T15:31:30;1.80;99.90
41965;DHT22;50120;53.250;8.702;2022-12-07T15:33:56;1.80;99.90
41965;DHT22;50120;53.250;8.702;2022-12-07T15:36:27;1.80;99.90
41965;DHT22;50120;53.250;8.702;2022-12-07T15:38:53;1.80;99.90
41965;DHT22;50120;53.250;8.702;2022-12-07T15:41:20;1.70;99.90
41965;DHT22;50120;53.250;8.702;2022-12-07T15:43:46;1.70;99.90
41965;DHT22;50120;53.250;8.702;2022-12-07T15:46:32;1.70;99.90
41965;DHT22;50120;53.250;8.702;2022-12-07T15:48:58;1.70;99.90
41965;DHT22;50120;53.250;8.702;2022-12-07T15:51:43;1.60;99.90
41965;DHT22;50120;53.250;8.702;2022-12-07T15:54:23;1.70;99.90
41965;DHT22;50120;53.250;8.702;2022-12-07T15:56:49;1.60;99.90
41965;DHT22;50120;53.250;8.702;2022-12-07T15:59:16;1.70;99.90
41965;DHT22;50120;53.250;8.702;2022-12-07T16:01:42;1.70;99.90
41965;DHT22;50120;53.250;8.702;2022-12-07T16:04:08;1.60;99.90
41965;DHT22;50120;53.250;8.702;2022-12-07T16:06:37;1.70;99.90
41965;DHT22;50120;53.250;8.702;2022-12-07T16:09:04;1.80;99.90
41965;DHT22;50120;53.250;8.702;2022-12-07T16:11:33;1.80;99.90
41965;DHT22;50120;53.250;8.702;2022-12-07T16:13:59;1.90;99.90
41965;DHT22;50120;53.250;8.702;2022-12-07T16:16:27;1.90;99.90
41965;DHT22;50120;53.250;8.702;2022-12-07T16:18:55;1.90;99.90
41965;DHT22;50120;53.250;8.702;2022-12-07T16:21:21;2.00;99.90
41965;DHT22;50120;53.250;8.702;2022-12-07T16:23:47;2.00;99.90
41965;DHT22;50120;53.250;8.702;2022-12-07T16:26:15;2.00;99.90
41965;DHT22;50120;53.250;8.702;2022-12-07T16:28:44;2.10;99.90
41965;DHT22;50120;53.250;8.702;2022-12-07T16:31:15;2.10;99.90
41965;DHT22;50120;53.250;8.702;2022-12-07T16:33:42;2.10;99.90
41965;DHT22;50120;53.250;8.702;2022-12-07T16:36:10;2.10;99.90
41965;DHT22;50120;53.250;8.702;2022-12-07T16:38:37;2.20;99.90
41965;DHT22;50120;53.250;8.702;2022-12-07T16:41:04;2.20;99.90
41965;DHT22;50120;53.250;8.702;2022-12-07T16:43:31;2.20;99.90
41965;DHT22;50120;53.250;8.702;2022-12-07T16:45:56;2.20;99.90
41965;DHT22;50120;53.250;8.702;2022-12-07T16:48:22;2.20;99.90
41965;DHT22;50120;53.250;8.702;2022-12-07T16:50:48;2.10;99.90
41965;DHT22;50120;53.250;8.702;2022-12-07T16:53:15;2.10;99.90
41965;DHT22;50120;53.250;8.702;2022-12-07T16:55:44;2.10;99.90
41965;DHT22;50120;53.250;8.702;2022-12-07T16:58:14;2.10;99.90
41965;DHT22;50120;53.250;8.702;2022-12-07T17:00:41;2.10;99.90
41965;DHT22;50120;53.250;8.702;2022-12-07T17:03:08;2.10;99.90
41965;DHT22;50120;53.250;8.702;2022-12-07T17:05:38;2.10;99.90
41965;DHT22;50120;53.250;8.702;2022-12-07T17:08:04;2.10;99.90
41965;DHT22;50120;53.250;8.702;2022-12-07T17:10:30;2.10;99.90
41965;DHT22;50120;53.250;8.702;2022-12-07T17:13:01;2.10;99.90
41965;DHT22;50120;53.250;8.702;2022-12-07T17:15:27;2.10;99.90
41965;DHT22;50120;53.250;8.702;2022-12-07T17:17:56;2.10;99.90
41965;DHT22;50120;53.250;8.702;2022-12-07T17:20:25;2.10;99.90
41965;DHT22;50120;53.250;8.702;2022-12-07T17:22:51;2.00;99.90
41965;DHT22;50120;53.250;8.702;2022-12-07T17:25:17;2.00;99.90
41965;DHT22;50120;53.250;8.702;2022-12-07T17:27:44;2.00;99.90
41965;DHT22;50120;53.250;8.702;2022-12-07T17:30:11;2.00;99.90
41965;DHT22;50120;53.250;8.702;2022-12-07T17:32:37;1.90;99.90
41965;DHT22;50120;53.250;8.702;2022-12-07T17:35:03;1.90;99.90
41965;DHT22;50120;53.250;8.702;2022-12-07T17:37:30;1.80;99.90
41965;DHT22;50120;53.250;8.702;2022-12-07T17:39:56;1.70;99.90
41965;DHT22;50120;53.250;8.702;2022-12-07T17:42:24;1.60;99.90
41965;DHT22;50120;53.250;8.702;2022-12-07T17:45:07;1.60;99.90
41965;DHT22;50120;53.250;8.702;2022-12-07T17:47:33;1.60;99.90
41965;DHT22;50120;53.250;8.702;2022-12-07T17:49:59;1.60;99.90
41965;DHT22;50120;53.250;8.702;2022-12-07T17:52:25;1.50;99.90
41965;DHT22;50120;53.250;8.702;2022-12-07T17:55:09;1.50;99.90
41965;DHT22;50120;53.250;8.702;2022-12-07T17:57:35;1.50;99.90
41965;DHT22;50120;53.250;8.702;2022-12-07T18:00:02;1.40;99.90
41965;DHT22;50120;53.250;8.702;2022-12-07T18:02:28;1.40;99.90
41965;DHT22;50120;53.250;8.702;2022-12-07T18:04:54;1.40;99.90